Terminal Aerodrome Forecast
Issued by NWS

Home | Current Version | Previous Version | Text Only | Print | Product List | Glossary On
Versions: 1 2 3 4 5 6 7 8 9 10 11 12 13 14 15 16 17
689
FTUS43 KILX 111740
TAFDEC
TAF
KDEC 111740Z 1118/1218 VRB05KT P6SM SCT250
     FM120100 VRB03KT P6SM BKN080
     FM120500 VRB04KT 6SM -SN OVC035
     FM120700 20006KT 3SM -SN BR OVC012
     FM121300 27007KT P6SM OVC018
     FM121600 29012G17KT P6SM BKN025=

USA.gov is the U.S. government's official web portal to all federal, state and local government web resources and services.